sensor_id;sensor_type;location;lat;lon;timestamp;P1;durP1;ratioP1;P2;durP2;ratioP2
74644;SDS011;63163;55.630;37.594;2023-07-31T00:00:21;6.9;;;2.9;;
74644;SDS011;63163;55.630;37.594;2023-07-31T00:01:22;6.5;;;2.7;;
74644;SDS011;63163;55.630;37.594;2023-07-31T00:02:22;8.9;;;2.6;;
74644;SDS011;63163;55.630;37.594;2023-07-31T00:03:23;6.4;;;2.5;;
74644;SDS011;63163;55.630;37.594;2023-07-31T00:04:23;7.6;;;2.5;;
74644;SDS011;63163;55.630;37.594;2023-07-31T00:05:24;7.2;;;2.6;;
74644;SDS011;63163;55.630;37.594;2023-07-31T00:06:25;6.1;;;2.6;;
74644;SDS011;63163;55.630;37.594;2023-07-31T00:07:25;6.4;;;2.5;;
74644;SDS011;63163;55.630;37.594;2023-07-31T00:08:26;5.5;;;2.5;;
74644;SDS011;63163;55.630;37.594;2023-07-31T00:09:26;6.5;;;2.7;;
74644;SDS011;63163;55.630;37.594;2023-07-31T00:10:27;5.2;;;2.4;;
74644;SDS011;63163;55.630;37.594;2023-07-31T00:11:27;4.6;;;2.2;;
74644;SDS011;63163;55.630;37.594;2023-07-31T00:12:28;6.4;;;2.5;;
74644;SDS011;63163;55.630;37.594;2023-07-31T00:13:28;5.5;;;2.3;;
74644;SDS011;63163;55.630;37.594;2023-07-31T00:14:29;6.1;;;2.6;;
74644;SDS011;63163;55.630;37.594;2023-07-31T00:15:29;4.5;;;2.4;;
74644;SDS011;63163;55.630;37.594;2023-07-31T00:16:30;5.3;;;2.1;;
74644;SDS011;63163;55.630;37.594;2023-07-31T00:17:30;7.1;;;2.6;;
74644;SDS011;63163;55.630;37.594;2023-07-31T00:18:31;4.2;;;2.2;;
74644;SDS011;63163;55.630;37.594;2023-07-31T00:19:32;3.6;;;2.1;;
74644;SDS011;63163;55.630;37.594;2023-07-31T00:20:32;6.9;;;2.8;;
74644;SDS011;63163;55.630;37.594;2023-07-31T00:21:33;5.7;;;2.5;;
74644;SDS011;63163;55.630;37.594;2023-07-31T00:22:33;4.5;;;2.6;;
74644;SDS011;63163;55.630;37.594;2023-07-31T00:23:34;6.8;;;2.6;;
74644;SDS011;63163;55.630;37.594;2023-07-31T00:24:34;4.7;;;2.4;;
74644;SDS011;63163;55.630;37.594;2023-07-31T00:25:35;4.5;;;2.1;;
74644;SDS011;63163;55.630;37.594;2023-07-31T00:26:35;5.4;;;2.2;;
74644;SDS011;63163;55.630;37.594;2023-07-31T00:27:36;5.0;;;2.3;;
74644;SDS011;63163;55.630;37.594;2023-07-31T00:28:37;5.9;;;2.3;;
74644;SDS011;63163;55.630;37.594;2023-07-31T00:29:37;5.1;;;2.6;;
74644;SDS011;63163;55.630;37.594;2023-07-31T00:30:38;5.1;;;2.5;;
74644;SDS011;63163;55.630;37.594;2023-07-31T00:31:38;3.7;;;2.2;;
74644;SDS011;63163;55.630;37.594;2023-07-31T00:32:39;3.4;;;2.0;;
74644;SDS011;63163;55.630;37.594;2023-07-31T00:33:39;4.7;;;2.1;;
74644;SDS011;63163;55.630;37.594;2023-07-31T00:34:40;3.1;;;1.8;;
74644;SDS011;63163;55.630;37.594;2023-07-31T00:35:40;4.0;;;2.2;;
74644;SDS011;63163;55.630;37.594;2023-07-31T00:36:41;5.5;;;2.4;;
74644;SDS011;63163;55.630;37.594;2023-07-31T00:37:41;4.7;;;2.2;;
74644;SDS011;63163;55.630;37.594;2023-07-31T00:38:42;5.0;;;2.3;;
74644;SDS011;63163;55.630;37.594;2023-07-31T00:39:42;6.8;;;2.3;;
74644;SDS011;63163;55.630;37.594;2023-07-31T00:40:43;6.3;;;2.2;;
74644;SDS011;63163;55.630;37.594;2023-07-31T00:41:44;4.6;;;2.2;;
74644;SDS011;63163;55.630;37.594;2023-07-31T00:42:44;4.1;;;2.2;;
74644;SDS011;63163;55.630;37.594;2023-07-31T00:43:45;4.1;;;2.0;;
74644;SDS011;63163;55.630;37.594;2023-07-31T00:44:45;5.6;;;2.0;;
74644;SDS011;63163;55.630;37.594;2023-07-31T00:45:46;6.9;;;2.1;;
74644;SDS011;63163;55.630;37.594;2023-07-31T00:46:47;5.6;;;2.3;;
74644;SDS011;63163;55.630;37.594;2023-07-31T00:47:48;4.8;;;2.1;;
74644;SDS011;63163;55.630;37.594;2023-07-31T00:48:49;4.2;;;2.3;;
74644;SDS011;63163;55.630;37.594;2023-07-31T00:49:49;3.7;;;2.0;;
74644;SDS011;63163;55.630;37.594;2023-07-31T00:50:50;3.9;;;2.3;;
74644;SDS011;63163;55.630;37.594;2023-07-31T00:51:51;5.3;;;2.4;;
74644;SDS011;63163;55.630;37.594;2023-07-31T00:52:51;5.1;;;2.3;;
74644;SDS011;63163;55.630;37.594;2023-07-31T00:53:52;4.4;;;2.1;;
74644;SDS011;63163;55.630;37.594;2023-07-31T00:54:54;4.9;;;2.3;;
74644;SDS011;63163;55.630;37.594;2023-07-31T00:55:55;4.7;;;2.3;;
74644;SDS011;63163;55.630;37.594;2023-07-31T00:56:55;4.7;;;2.1;;
74644;SDS011;63163;55.630;37.594;2023-07-31T00:57:56;4.7;;;2.1;;
74644;SDS011;63163;55.630;37.594;2023-07-31T00:58:57;5.2;;;2.2;;
74644;SDS011;63163;55.630;37.594;2023-07-31T00:59:58;6.1;;;2.3;;
74644;SDS011;63163;55.630;37.594;2023-07-31T01:00:58;3.6;;;2.3;;
74644;SDS011;63163;55.630;37.594;2023-07-31T01:01:59;4.0;;;2.2;;
74644;SDS011;63163;55.630;37.594;2023-07-31T01:02:59;3.8;;;2.0;;
74644;SDS011;63163;55.630;37.594;2023-07-31T01:04:00;4.2;;;2.1;;
74644;SDS011;63163;55.630;37.594;2023-07-31T01:05:01;4.4;;;2.1;;
74644;SDS011;63163;55.630;37.594;2023-07-31T01:06:06;6.9;;;2.3;;
74644;SDS011;63163;55.630;37.594;2023-07-31T01:07:11;4.3;;;2.1;;
74644;SDS011;63163;55.630;37.594;2023-07-31T01:08:15;3.4;;;2.1;;
74644;SDS011;63163;55.630;37.594;2023-07-31T01:09:18;3.9;;;2.2;;
74644;SDS011;63163;55.630;37.594;2023-07-31T01:10:21;4.3;;;2.3;;
74644;SDS011;63163;55.630;37.594;2023-07-31T01:11:25;4.7;;;2.3;;
74644;SDS011;63163;55.630;37.594;2023-07-31T01:12:27;6.5;;;2.1;;
74644;SDS011;63163;55.630;37.594;2023-07-31T01:13:29;6.5;;;2.5;;
74644;SDS011;63163;55.630;37.594;2023-07-31T01:14:30;4.1;;;2.2;;
74644;SDS011;63163;55.630;37.594;2023-07-31T01:15:31;4.9;;;2.1;;
74644;SDS011;63163;55.630;37.594;2023-07-31T01:16:31;4.2;;;2.1;;
74644;SDS011;63163;55.630;37.594;2023-07-31T01:17:32;4.8;;;2.0;;
74644;SDS011;63163;55.630;37.594;2023-07-31T01:18:32;5.7;;;2.3;;
74644;SDS011;63163;55.630;37.594;2023-07-31T01:19:33;4.4;;;2.2;;
74644;SDS011;63163;55.630;37.594;2023-07-31T01:20:33;3.6;;;2.2;;
74644;SDS011;63163;55.630;37.594;2023-07-31T01:21:41;6.2;;;2.1;;
74644;SDS011;63163;55.630;37.594;2023-07-31T01:22:49;10.1;;;2.4;;
74644;SDS011;63163;55.630;37.594;2023-07-31T01:24:00;3.3;;;2.1;;
74644;SDS011;63163;55.630;37.594;2023-07-31T01:25:12;6.8;;;2.3;;
74644;SDS011;63163;55.630;37.594;2023-07-31T01:26:17;5.0;;;2.3;;
74644;SDS011;63163;55.630;37.594;2023-07-31T01:27:21;3.8;;;2.1;;
74644;SDS011;63163;55.630;37.594;2023-07-31T01:28:23;5.0;;;2.1;;
74644;SDS011;63163;55.630;37.594;2023-07-31T01:29:29;5.1;;;2.1;;
74644;SDS011;63163;55.630;37.594;2023-07-31T01:30:32;5.5;;;2.1;;
74644;SDS011;63163;55.630;37.594;2023-07-31T01:31:35;5.8;;;2.2;;
74644;SDS011;63163;55.630;37.594;2023-07-31T01:32:37;5.1;;;2.2;;
74644;SDS011;63163;55.630;37.594;2023-07-31T01:33:39;4.4;;;2.2;;
74644;SDS011;63163;55.630;37.594;2023-07-31T01:34:40;5.5;;;2.2;;
74644;SDS011;63163;55.630;37.594;2023-07-31T01:35:42;4.9;;;2.0;;
74644;SDS011;63163;55.630;37.594;2023-07-31T01:36:43;5.6;;;2.0;;
74644;SDS011;63163;55.630;37.594;2023-07-31T01:37:44;5.9;;;2.4;;
74644;SDS011;63163;55.630;37.594;2023-07-31T01:38:45;6.3;;;2.2;;
74644;SDS011;63163;55.630;37.594;2023-07-31T01:39:46;4.9;;;2.2;;
74644;SDS011;63163;55.630;37.594;2023-07-31T01:40:48;3.7;;;2.2;;
74644;SDS011;63163;55.630;37.594;2023-07-31T01:41:51;3.9;;;2.1;;
74644;SDS011;63163;55.630;37.594;2023-07-31T01:42:51;4.5;;;2.1;;
74644;SDS011;63163;55.630;37.594;2023-07-31T01:43:52;4.9;;;2.1;;
74644;SDS011;63163;55.630;37.594;2023-07-31T01:44:52;5.2;;;2.1;;
74644;SDS011;63163;55.630;37.594;2023-07-31T01:45:53;3.9;;;2.2;;
74644;SDS011;63163;55.630;37.594;2023-07-31T01:46:53;4.5;;;2.0;;
74644;SDS011;63163;55.630;37.594;2023-07-31T01:47:54;3.7;;;1.9;;
74644;SDS011;63163;55.630;37.594;2023-07-31T01:48:55;4.8;;;1.9;;
74644;SDS011;63163;55.630;37.594;2023-07-31T01:49:55;3.8;;;2.2;;
74644;SDS011;63163;55.630;37.594;2023-07-31T01:50:56;5.4;;;2.0;;
74644;SDS011;63163;55.630;37.594;2023-07-31T01:52:00;3.9;;;2.1;;
74644;SDS011;63163;55.630;37.594;2023-07-31T01:53:01;4.0;;;2.4;;
74644;SDS011;63163;55.630;37.594;2023-07-31T01:54:01;5.3;;;2.1;;
74644;SDS011;63163;55.630;37.594;2023-07-31T01:55:02;4.2;;;2.2;;
74644;SDS011;63163;55.630;37.594;2023-07-31T01:56:02;4.3;;;2.2;;
74644;SDS011;63163;55.630;37.594;2023-07-31T01:57:03;4.0;;;2.0;;
74644;SDS011;63163;55.630;37.594;2023-07-31T01:58:04;3.0;;;1.9;;
74644;SDS011;63163;55.630;37.594;2023-07-31T01:59:04;4.5;;;2.7;;
74644;SDS011;63163;55.630;37.594;2023-07-31T02:00:05;4.2;;;2.4;;
74644;SDS011;63163;55.630;37.594;2023-07-31T02:01:06;4.4;;;2.2;;
74644;SDS011;63163;55.630;37.594;2023-07-31T02:02:07;6.2;;;2.3;;
74644;SDS011;63163;55.630;37.594;2023-07-31T02:03:07;4.1;;;2.3;;
74644;SDS011;63163;55.630;37.594;2023-07-31T02:04:08;7.5;;;2.3;;
74644;SDS011;63163;55.630;37.594;2023-07-31T02:05:08;4.4;;;2.1;;
74644;SDS011;63163;55.630;37.594;2023-07-31T02:06:09;5.4;;;2.2;;
74644;SDS011;63163;55.630;37.594;2023-07-31T02:07:09;5.1;;;2.1;;
74644;SDS011;63163;55.630;37.594;2023-07-31T02:08:10;4.6;;;2.3;;
74644;SDS011;63163;55.630;37.594;2023-07-31T02:09:10;4.1;;;2.3;;
74644;SDS011;63163;55.630;37.594;2023-07-31T02:10:11;4.8;;;2.1;;
74644;SDS011;63163;55.630;37.594;2023-07-31T02:11:12;4.8;;;2.1;;
74644;SDS011;63163;55.630;37.594;2023-07-31T02:12:12;4.4;;;2.2;;
74644;SDS011;63163;55.630;37.594;2023-07-31T02:13:14;4.3;;;2.2;;
74644;SDS011;63163;55.630;37.594;2023-07-31T02:14:15;5.9;;;2.3;;
74644;SDS011;63163;55.630;37.594;2023-07-31T02:15:15;4.8;;;2.3;;
74644;SDS011;63163;55.630;37.594;2023-07-31T02:16:16;7.3;;;2.7;;
74644;SDS011;63163;55.630;37.594;2023-07-31T02:17:16;5.8;;;2.5;;
74644;SDS011;63163;55.630;37.594;2023-07-31T02:18:17;4.7;;;2.3;;
74644;SDS011;63163;55.630;37.594;2023-07-31T02:19:17;5.9;;;2.7;;
74644;SDS011;63163;55.630;37.594;2023-07-31T02:20:18;6.5;;;2.4;;
74644;SDS011;63163;55.630;37.594;2023-07-31T02:21:19;5.5;;;2.3;;
74644;SDS011;63163;55.630;37.594;2023-07-31T02:22:19;4.6;;;2.4;;
74644;SDS011;63163;55.630;37.594;2023-07-31T02:23:20;3.7;;;2.3;;
74644;SDS011;63163;55.630;37.594;2023-07-31T02:24:20;5.4;;;2.2;;
74644;SDS011;63163;55.630;37.594;2023-07-31T02:25:21;14.7;;;2.9;;
74644;SDS011;63163;55.630;37.594;2023-07-31T02:26:22;4.0;;;2.2;;
74644;SDS011;63163;55.630;37.594;2023-07-31T02:27:22;4.4;;;2.2;;
74644;SDS011;63163;55.630;37.594;2023-07-31T02:28:28;7.6;;;2.6;;
74644;SDS011;63163;55.630;37.594;2023-07-31T02:29:29;5.1;;;2.3;;
74644;SDS011;63163;55.630;37.594;2023-07-31T02:30:29;4.2;;;2.1;;
74644;SDS011;63163;55.630;37.594;2023-07-31T02:31:30;6.7;;;2.2;;
74644;SDS011;63163;55.630;37.594;2023-07-31T02:32:30;7.3;;;2.4;;
74644;SDS011;63163;55.630;37.594;2023-07-31T02:33:31;4.3;;;2.1;;
74644;SDS011;63163;55.630;37.594;2023-07-31T02:34:31;6.2;;;2.6;;
74644;SDS011;63163;55.630;37.594;2023-07-31T02:35:32;3.6;;;2.1;;
74644;SDS011;63163;55.630;37.594;2023-07-31T02:36:32;4.9;;;3.0;;
74644;SDS011;63163;55.630;37.594;2023-07-31T02:37:33;4.6;;;2.5;;
74644;SDS011;63163;55.630;37.594;2023-07-31T02:38:34;4.4;;;2.3;;
74644;SDS011;63163;55.630;37.594;2023-07-31T02:39:34;3.8;;;2.2;;
74644;SDS011;63163;55.630;37.594;2023-07-31T02:40:35;3.6;;;2.5;;
74644;SDS011;63163;55.630;37.594;2023-07-31T02:41:35;4.7;;;2.4;;
74644;SDS011;63163;55.630;37.594;2023-07-31T02:42:36;4.2;;;2.3;;
74644;SDS011;63163;55.630;37.594;2023-07-31T02:43:36;3.8;;;2.2;;
74644;SDS011;63163;55.630;37.594;2023-07-31T02:44:37;5.1;;;2.4;;
74644;SDS011;63163;55.630;37.594;2023-07-31T02:45:38;6.8;;;2.2;;
74644;SDS011;63163;55.630;37.594;2023-07-31T02:46:38;4.0;;;2.2;;
74644;SDS011;63163;55.630;37.594;2023-07-31T02:47:39;4.6;;;2.1;;
74644;SDS011;63163;55.630;37.594;2023-07-31T02:48:39;4.8;;;2.3;;
74644;SDS011;63163;55.630;37.594;2023-07-31T02:49:40;4.0;;;2.0;;
74644;SDS011;63163;55.630;37.594;2023-07-31T02:50:40;4.6;;;2.2;;
74644;SDS011;63163;55.630;37.594;2023-07-31T02:51:41;4.4;;;2.0;;
74644;SDS011;63163;55.630;37.594;2023-07-31T02:52:41;5.5;;;2.1;;
74644;SDS011;63163;55.630;37.594;2023-07-31T02:53:42;4.1;;;2.1;;
74644;SDS011;63163;55.630;37.594;2023-07-31T02:54:42;5.1;;;2.2;;
74644;SDS011;63163;55.630;37.594;2023-07-31T02:55:43;5.1;;;2.1;;
74644;SDS011;63163;55.630;37.594;2023-07-31T02:56:43;5.0;;;2.1;;
74644;SDS011;63163;55.630;37.594;2023-07-31T02:57:44;4.8;;;2.2;;
74644;SDS011;63163;55.630;37.594;2023-07-31T02:58:44;5.3;;;2.0;;
74644;SDS011;63163;55.630;37.594;2023-07-31T02:59:45;4.0;;;2.3;;
74644;SDS011;63163;55.630;37.594;2023-07-31T03:00:45;5.5;;;2.3;;
74644;SDS011;63163;55.630;37.594;2023-07-31T03:01:46;4.2;;;2.2;;
74644;SDS011;63163;55.630;37.594;2023-07-31T03:02:46;5.2;;;2.2;;
74644;SDS011;63163;55.630;37.594;2023-07-31T03:03:47;5.4;;;2.1;;
74644;SDS011;63163;55.630;37.594;2023-07-31T03:04:47;5.2;;;2.1;;
74644;SDS011;63163;55.630;37.594;2023-07-31T03:05:48;4.4;;;2.1;;
74644;SDS011;63163;55.630;37.594;2023-07-31T03:06:48;3.9;;;2.1;;
74644;SDS011;63163;55.630;37.594;2023-07-31T03:07:49;5.7;;;2.2;;
74644;SDS011;63163;55.630;37.594;2023-07-31T03:08:49;4.7;;;2.3;;
74644;SDS011;63163;55.630;37.594;2023-07-31T03:09:50;4.0;;;2.5;;
74644;SDS011;63163;55.630;37.594;2023-07-31T03:10:50;5.5;;;2.2;;
74644;SDS011;63163;55.630;37.594;2023-07-31T03:11:51;5.6;;;2.0;;
74644;SDS011;63163;55.630;37.594;2023-07-31T03:12:51;5.5;;;2.1;;
74644;SDS011;63163;55.630;37.594;2023-07-31T03:13:52;4.5;;;2.0;;
74644;SDS011;63163;55.630;37.594;2023-07-31T03:14:53;4.1;;;2.3;;
74644;SDS011;63163;55.630;37.594;2023-07-31T03:15:53;4.1;;;2.4;;
74644;SDS011;63163;55.630;37.594;2023-07-31T03:16:54;5.4;;;2.2;;
74644;SDS011;63163;55.630;37.594;2023-07-31T03:17:54;6.5;;;2.2;;
74644;SDS011;63163;55.630;37.594;2023-07-31T03:18:55;4.7;;;2.2;;
74644;SDS011;63163;55.630;37.594;2023-07-31T03:19:55;4.9;;;2.4;;
74644;SDS011;63163;55.630;37.594;2023-07-31T03:20:56;6.7;;;3.8;;
74644;SDS011;63163;55.630;37.594;2023-07-31T03:21:56;5.6;;;2.5;;
74644;SDS011;63163;55.630;37.594;2023-07-31T03:22:57;4.5;;;2.5;;
74644;SDS011;63163;55.630;37.594;2023-07-31T03:23:58;5.7;;;3.3;;
74644;SDS011;63163;55.630;37.594;2023-07-31T03:24:58;4.6;;;2.2;;
74644;SDS011;63163;55.630;37.594;2023-07-31T03:25:59;4.0;;;2.0;;
74644;SDS011;63163;55.630;37.594;2023-07-31T03:27:00;8.7;;;2.4;;
74644;SDS011;63163;55.630;37.594;2023-07-31T03:28:01;6.5;;;2.3;;
74644;SDS011;63163;55.630;37.594;2023-07-31T03:29:01;3.6;;;2.1;;
74644;SDS011;63163;55.630;37.594;2023-07-31T03:30:02;5.2;;;2.8;;
74644;SDS011;63163;55.630;37.594;2023-07-31T03:31:02;6.6;;;2.4;;
74644;SDS011;63163;55.630;37.594;2023-07-31T03:32:03;4.6;;;2.3;;
74644;SDS011;63163;55.630;37.594;2023-07-31T03:33:04;5.7;;;2.4;;
74644;SDS011;63163;55.630;37.594;2023-07-31T03:34:05;3.2;;;1.8;;
74644;SDS011;63163;55.630;37.594;2023-07-31T03:35:05;4.3;;;2.2;;
74644;SDS011;63163;55.630;37.594;2023-07-31T03:36:06;5.0;;;2.1;;
74644;SDS011;63163;55.630;37.594;2023-07-31T03:37:07;5.5;;;1.9;;
74644;SDS011;63163;55.630;37.594;2023-07-31T03:38:09;4.3;;;2.1;;
74644;SDS011;63163;55.630;37.594;2023-07-31T03:39:10;3.6;;;1.9;;
74644;SDS011;63163;55.630;37.594;2023-07-31T03:40:11;3.6;;;2.2;;
74644;SDS011;63163;55.630;37.594;2023-07-31T03:41:11;4.9;;;2.1;;
74644;SDS011;63163;55.630;37.594;2023-07-31T03:42:12;3.7;;;2.0;;
74644;SDS011;63163;55.630;37.594;2023-07-31T03:43:12;3.5;;;2.1;;
74644;SDS011;63163;55.630;37.594;2023-07-31T03:44:13;4.6;;;1.8;;
74644;SDS011;63163;55.630;37.594;2023-07-31T03:45:13;2.6;;;1.7;;
74644;SDS011;63163;55.630;37.594;2023-07-31T03:46:14;5.8;;;2.0;;
74644;SDS011;63163;55.630;37.594;2023-07-31T03:47:15;4.7;;;2.1;;
74644;SDS011;63163;55.630;37.594;2023-07-31T03:48:15;4.0;;;2.1;;
74644;SDS011;63163;55.630;37.594;2023-07-31T03:49:16;3.3;;;2.2;;
74644;SDS011;63163;55.630;37.594;2023-07-31T03:50:17;3.2;;;2.0;;
74644;SDS011;63163;55.630;37.594;2023-07-31T03:51:17;3.5;;;2.0;;
74644;SDS011;63163;55.630;37.594;2023-07-31T03:52:18;3.7;;;1.9;;
74644;SDS011;63163;55.630;37.594;2023-07-31T03:53:18;4.2;;;2.2;;
74644;SDS011;63163;55.630;37.594;2023-07-31T03:54:19;3.8;;;1.8;;
74644;SDS011;63163;55.630;37.594;2023-07-31T03:55:19;4.0;;;1.9;;
74644;SDS011;63163;55.630;37.594;2023-07-31T03:56:21;3.7;;;1.8;;
74644;SDS011;63163;55.630;37.594;2023-07-31T03:57:22;3.9;;;1.9;;
74644;SDS011;63163;55.630;37.594;2023-07-31T03:58:23;3.3;;;1.8;;
74644;SDS011;63163;55.630;37.594;2023-07-31T03:59:23;2.8;;;1.8;;
74644;SDS011;63163;55.630;37.594;2023-07-31T04:00:24;4.5;;;2.1;;
74644;SDS011;63163;55.630;37.594;2023-07-31T04:01:25;3.0;;;1.7;;
74644;SDS011;63163;55.630;37.594;2023-07-31T04:02:26;4.9;;;1.9;;
74644;SDS011;63163;55.630;37.594;2023-07-31T04:03:27;4.6;;;1.9;;
74644;SDS011;63163;55.630;37.594;2023-07-31T04:04:27;2.4;;;1.7;;
74644;SDS011;63163;55.630;37.594;2023-07-31T04:05:29;4.2;;;1.8;;
74644;SDS011;63163;55.630;37.594;2023-07-31T04:06:30;3.8;;;1.9;;
74644;SDS011;63163;55.630;37.594;2023-07-31T04:07:30;3.6;;;1.8;;
74644;SDS011;63163;55.630;37.594;2023-07-31T04:08:31;4.2;;;2.1;;
74644;SDS011;63163;55.630;37.594;2023-07-31T04:09:31;3.8;;;1.8;;
74644;SDS011;63163;55.630;37.594;2023-07-31T04:10:32;4.2;;;1.8;;
74644;SDS011;63163;55.630;37.594;2023-07-31T04:11:33;6.6;;;2.0;;
74644;SDS011;63163;55.630;37.594;2023-07-31T04:12:34;5.9;;;2.0;;
74644;SDS011;63163;55.630;37.594;2023-07-31T04:13:34;2.9;;;1.8;;
74644;SDS011;63163;55.630;37.594;2023-07-31T04:14:35;6.7;;;2.0;;
74644;SDS011;63163;55.630;37.594;2023-07-31T04:15:35;3.2;;;1.8;;
74644;SDS011;63163;55.630;37.594;2023-07-31T04:16:36;4.6;;;1.9;;
74644;SDS011;63163;55.630;37.594;2023-07-31T04:17:36;4.3;;;1.9;;
74644;SDS011;63163;55.630;37.594;2023-07-31T04:18:37;4.1;;;1.8;;
74644;SDS011;63163;55.630;37.594;2023-07-31T04:19:38;3.7;;;1.7;;
74644;SDS011;63163;55.630;37.594;2023-07-31T04:20:38;4.0;;;1.7;;
74644;SDS011;63163;55.630;37.594;2023-07-31T04:21:39;3.1;;;1.8;;
74644;SDS011;63163;55.630;37.594;2023-07-31T04:22:39;4.4;;;1.7;;
74644;SDS011;63163;55.630;37.594;2023-07-31T04:23:40;4.2;;;1.9;;
74644;SDS011;63163;55.630;37.594;2023-07-31T04:24:40;3.3;;;1.8;;
74644;SDS011;63163;55.630;37.594;2023-07-31T04:25:41;3.5;;;1.9;;
74644;SDS011;63163;55.630;37.594;2023-07-31T04:26:41;3.7;;;2.0;;
74644;SDS011;63163;55.630;37.594;2023-07-31T04:27:42;5.1;;;2.1;;
74644;SDS011;63163;55.630;37.594;2023-07-31T04:28:42;5.2;;;2.0;;
74644;SDS011;63163;55.630;37.594;2023-07-31T04:29:43;4.1;;;1.7;;
74644;SDS011;63163;55.630;37.594;2023-07-31T04:30:46;3.7;;;2.0;;
74644;SDS011;63163;55.630;37.594;2023-07-31T04:31:47;5.2;;;1.9;;
74644;SDS011;63163;55.630;37.594;2023-07-31T04:32:48;3.4;;;1.8;;
74644;SDS011;63163;55.630;37.594;2023-07-31T04:33:48;2.8;;;1.7;;
74644;SDS011;63163;55.630;37.594;2023-07-31T04:34:49;5.6;;;2.2;;
74644;SDS011;63163;55.630;37.594;2023-07-31T04:35:50;4.0;;;1.8;;
74644;SDS011;63163;55.630;37.594;2023-07-31T04:36:52;2.8;;;1.4;;
74644;SDS011;63163;55.630;37.594;2023-07-31T04:37:53;4.0;;;1.7;;
74644;SDS011;63163;55.630;37.594;2023-07-31T04:38:53;3.2;;;1.6;;
74644;SDS011;63163;55.630;37.594;2023-07-31T04:39:54;3.0;;;1.7;;
74644;SDS011;63163;55.630;37.594;2023-07-31T04:40:54;4.7;;;1.9;;
74644;SDS011;63163;55.630;37.594;2023-07-31T04:41:55;3.7;;;1.7;;
74644;SDS011;63163;55.630;37.594;2023-07-31T04:42:55;4.3;;;2.2;;
74644;SDS011;63163;55.630;37.594;2023-07-31T04:43:56;4.6;;;2.0;;
74644;SDS011;63163;55.630;37.594;2023-07-31T04:44:57;5.3;;;2.3;;
74644;SDS011;63163;55.630;37.594;2023-07-31T04:45:57;4.1;;;1.9;;
74644;SDS011;63163;55.630;37.594;2023-07-31T04:46:58;5.5;;;2.2;;
74644;SDS011;63163;55.630;37.594;2023-07-31T04:47:58;3.4;;;1.6;;
74644;SDS011;63163;55.630;37.594;2023-07-31T04:49:00;3.9;;;2.0;;
74644;SDS011;63163;55.630;37.594;2023-07-31T04:50:00;5.1;;;1.8;;
74644;SDS011;63163;55.630;37.594;2023-07-31T04:51:01;3.6;;;1.9;;
74644;SDS011;63163;55.630;37.594;2023-07-31T04:52:02;4.2;;;1.8;;
74644;SDS011;63163;55.630;37.594;2023-07-31T04:53:02;4.1;;;1.8;;
74644;SDS011;63163;55.630;37.594;2023-07-31T04:54:03;3.3;;;1.8;;
74644;SDS011;63163;55.630;37.594;2023-07-31T04:55:04;4.7;;;2.1;;
74644;SDS011;63163;55.630;37.594;2023-07-31T04:56:04;2.7;;;1.7;;
74644;SDS011;63163;55.630;37.594;2023-07-31T04:57:05;6.9;;;1.9;;
74644;SDS011;63163;55.630;37.594;2023-07-31T04:58:06;5.6;;;2.0;;
74644;SDS011;63163;55.630;37.594;2023-07-31T04:59:07;6.9;;;2.3;;
74644;SDS011;63163;55.630;37.594;2023-07-31T05:00:08;3.2;;;1.7;;
74644;SDS011;63163;55.630;37.594;2023-07-31T05:01:08;3.2;;;1.5;;
74644;SDS011;63163;55.630;37.594;2023-07-31T05:02:11;2.0;;;1.5;;
74644;SDS011;63163;55.630;37.594;2023-07-31T05:03:12;4.1;;;2.1;;
74644;SDS011;63163;55.630;37.594;2023-07-31T05:04:12;5.1;;;1.8;;
74644;SDS011;63163;55.630;37.594;2023-07-31T05:05:13;3.9;;;1.7;;
74644;SDS011;63163;55.630;37.594;2023-07-31T05:06:14;4.6;;;1.8;;
74644;SDS011;63163;55.630;37.594;2023-07-31T05:07:15;3.5;;;1.5;;
74644;SDS011;63163;55.630;37.594;2023-07-31T05:08:17;3.6;;;1.6;;
74644;SDS011;63163;55.630;37.594;2023-07-31T05:09:17;4.8;;;2.0;;
74644;SDS011;63163;55.630;37.594;2023-07-31T05:10:18;3.2;;;1.8;;
74644;SDS011;63163;55.630;37.594;2023-07-31T05:11:19;2.6;;;1.5;;
74644;SDS011;63163;55.630;37.594;2023-07-31T05:12:19;3.9;;;1.7;;
74644;SDS011;63163;55.630;37.594;2023-07-31T05:13:20;4.9;;;1.9;;
74644;SDS011;63163;55.630;37.594;2023-07-31T05:14:21;2.8;;;1.5;;
74644;SDS011;63163;55.630;37.594;2023-07-31T05:15:21;5.9;;;1.8;;
74644;SDS011;63163;55.630;37.594;2023-07-31T05:16:22;3.4;;;1.7;;
74644;SDS011;63163;55.630;37.594;2023-07-31T05:17:22;3.2;;;1.7;;
74644;SDS011;63163;55.630;37.594;2023-07-31T05:18:23;3.1;;;1.6;;
74644;SDS011;63163;55.630;37.594;2023-07-31T05:19:23;2.6;;;1.5;;
74644;SDS011;63163;55.630;37.594;2023-07-31T05:20:24;4.1;;;1.6;;
74644;SDS011;63163;55.630;37.594;2023-07-31T05:21:24;3.4;;;1.8;;
74644;SDS011;63163;55.630;37.594;2023-07-31T05:22:25;3.9;;;1.5;;
74644;SDS011;63163;55.630;37.594;2023-07-31T05:23:26;6.4;;;1.7;;
74644;SDS011;63163;55.630;37.594;2023-07-31T05:24:26;4.4;;;1.6;;
74644;SDS011;63163;55.630;37.594;2023-07-31T05:25:27;4.4;;;1.6;;
74644;SDS011;63163;55.630;37.594;2023-07-31T05:26:27;3.1;;;1.8;;
74644;SDS011;63163;55.630;37.594;2023-07-31T05:27:28;4.3;;;1.8;;
74644;SDS011;63163;55.630;37.594;2023-07-31T05:28:28;5.2;;;2.1;;
74644;SDS011;63163;55.630;37.594;2023-07-31T05:29:29;3.5;;;1.7;;
74644;SDS011;63163;55.630;37.594;2023-07-31T05:30:29;4.9;;;1.8;;
74644;SDS011;63163;55.630;37.594;2023-07-31T05:31:30;3.7;;;1.8;;
74644;SDS011;63163;55.630;37.594;2023-07-31T05:32:32;4.3;;;1.8;;
74644;SDS011;63163;55.630;37.594;2023-07-31T05:33:33;3.9;;;1.5;;
74644;SDS011;63163;55.630;37.594;2023-07-31T05:34:33;3.4;;;1.6;;
74644;SDS011;63163;55.630;37.594;2023-07-31T05:35:34;6.7;;;2.0;;
74644;SDS011;63163;55.630;37.594;2023-07-31T05:36:34;4.4;;;1.5;;
74644;SDS011;63163;55.630;37.594;2023-07-31T05:37:35;3.3;;;1.5;;
74644;SDS011;63163;55.630;37.594;2023-07-31T05:38:36;4.7;;;2.0;;
74644;SDS011;63163;55.630;37.594;2023-07-31T05:39:36;3.5;;;1.6;;
74644;SDS011;63163;55.630;37.594;2023-07-31T05:40:37;5.1;;;1.7;;
74644;SDS011;63163;55.630;37.594;2023-07-31T05:41:37;3.4;;;1.4;;
74644;SDS011;63163;55.630;37.594;2023-07-31T05:42:38;4.9;;;1.8;;
74644;SDS011;63163;55.630;37.594;2023-07-31T05:43:39;3.1;;;1.4;;
74644;SDS011;63163;55.630;37.594;2023-07-31T05:44:39;4.5;;;1.7;;
74644;SDS011;63163;55.630;37.594;2023-07-31T05:45:40;3.6;;;1.6;;
74644;SDS011;63163;55.630;37.594;2023-07-31T05:46:40;6.1;;;1.7;;
74644;SDS011;63163;55.630;37.594;2023-07-31T05:47:41;5.8;;;1.8;;
74644;SDS011;63163;55.630;37.594;2023-07-31T05:48:41;4.8;;;1.9;;
74644;SDS011;63163;55.630;37.594;2023-07-31T05:49:42;3.3;;;1.6;;
74644;SDS011;63163;55.630;37.594;2023-07-31T05:50:43;5.8;;;1.6;;
74644;SDS011;63163;55.630;37.594;2023-07-31T05:51:43;4.0;;;1.4;;
74644;SDS011;63163;55.630;37.594;2023-07-31T05:52:44;6.0;;;1.7;;
74644;SDS011;63163;55.630;37.594;2023-07-31T05:53:45;2.7;;;1.4;;
74644;SDS011;63163;55.630;37.594;2023-07-31T05:54:45;2.5;;;1.5;;
74644;SDS011;63163;55.630;37.594;2023-07-31T05:55:46;3.4;;;1.5;;
74644;SDS011;63163;55.630;37.594;2023-07-31T05:56:46;3.8;;;1.5;;
74644;SDS011;63163;55.630;37.594;2023-07-31T05:57:47;5.6;;;1.9;;
74644;SDS011;63163;55.630;37.594;2023-07-31T05:58:47;2.6;;;1.6;;
74644;SDS011;63163;55.630;37.594;2023-07-31T05:59:49;4.2;;;1.6;;
74644;SDS011;63163;55.630;37.594;2023-07-31T06:00:49;2.6;;;1.6;;
74644;SDS011;63163;55.630;37.594;2023-07-31T06:01:50;3.9;;;1.4;;
74644;SDS011;63163;55.630;37.594;2023-07-31T06:02:50;3.1;;;1.7;;
74644;SDS011;63163;55.630;37.594;2023-07-31T06:03:51;3.7;;;1.4;;
74644;SDS011;63163;55.630;37.594;2023-07-31T06:04:52;3.7;;;1.7;;
74644;SDS011;63163;55.630;37.594;2023-07-31T06:05:52;3.4;;;1.4;;
74644;SDS011;63163;55.630;37.594;2023-07-31T06:06:53;2.4;;;1.5;;
74644;SDS011;63163;55.630;37.594;2023-07-31T06:07:53;2.5;;;1.4;;
74644;SDS011;63163;55.630;37.594;2023-07-31T06:08:54;3.8;;;1.4;;
74644;SDS011;63163;55.630;37.594;2023-07-31T06:10:05;3.2;;;1.4;;
74644;SDS011;63163;55.630;37.594;2023-07-31T06:11:06;3.7;;;1.5;;
74644;SDS011;63163;55.630;37.594;2023-07-31T06:12:08;4.6;;;1.6;;